Azamara Quest — V7DM6 — position and weather

sailwx.info

Track history (hours):
 
Tides and Currents Weather Stations Pressure Air Temp Water Temp Dewpoint Dewpoint Depression Visibility Wind Speed Wind Dir Waves Ship Positions

Azamara Quest

Last reported at 2019-Sep-22 00:00 UTC. Time now 2019-Sep-22 00:06 UTC.
Position N 53°23' W 002°60'.

Length 184 m; draft 11.2 m.

Type: Tanker. MMSI: 538005401.

Date/timePositionNaut miles runAvg speedWind from/ knotsBaromVisibWave heightAir tempDewpointWater temp
2019-Sep-22 00:00N 53°23' W 002°60'0 0.0
2019-Sep-21 23:30N 53°23' W 002°60'0 0.0
2019-Sep-21 23:00N 53°23' W 002°60'0 0.0
2019-Sep-21 22:30N 53°23' W 002°60'0 0.0
2019-Sep-21 22:00N 53°23' W 002°60'0 0.0
2019-Sep-21 21:30N 53°23' W 002°60'0 0.0
2019-Sep-21 21:00N 53°23' W 002°60'0 0.0
2019-Sep-21 20:30N 53°23' W 002°60'0 0.0
2019-Sep-21 20:00N 53°23' W 002°60'0 0.0
2019-Sep-21 19:30N 53°23' W 002°60'0 0.0
2019-Sep-21 19:00N 53°23' W 002°60'0 0.0
2019-Sep-21 18:30N 53°23' W 002°60'0 0.0
2019-Sep-21 18:00N 53°23' W 002°60'0 0.0
2019-Sep-21 17:30N 53°23' W 002°60'0 0.0
2019-Sep-21 17:00N 53°23' W 002°60'0 0.0
2019-Sep-21 16:30N 53°23' W 002°60'0 0.0
2019-Sep-21 16:00N 53°23' W 002°60'0 0.0
2019-Sep-21 15:30N 53°23' W 002°60'0 0.0
2019-Sep-21 15:00N 53°23' W 002°60'0 0.0
2019-Sep-21 14:30N 53°23' W 002°60'0 0.0
2019-Sep-21 14:00N 53°23' W 002°60'0 0.0
2019-Sep-21 13:30N 53°23' W 002°60'0 0.0
2019-Sep-21 13:00N 53°23' W 002°60'0 0.0
2019-Sep-21 12:30N 53°23' W 002°60'0 0.0
2019-Sep-21 12:00N 53°23' W 002°60'0 0.0
2019-Sep-21 11:30N 53°23' W 002°60'0 0.0
2019-Sep-21 11:00N 53°23' W 002°60'0 0.0
2019-Sep-21 10:30N 53°23' W 002°60'0 0.0
2019-Sep-21 10:00N 53°23' W 002°60'0 0.0
2019-Sep-21 09:30N 53°23' W 002°60'0 0.0
2019-Sep-21 09:00N 53°23' W 002°60'0 0.0
2019-Sep-21 08:30N 53°23' W 002°60'0 0.0
2019-Sep-21 08:00N 53°23' W 002°60'0 0.0
2019-Sep-21 07:30N 53°23' W 002°60'0 0.0
2019-Sep-21 07:00N 53°23' W 002°60'0 0.0
2019-Sep-21 06:30N 53°23' W 002°60'0 0.0
2019-Sep-21 06:00N 53°23' W 002°60'0 0.0
2019-Sep-21 05:30N 53°23' W 002°60'0 0.0
2019-Sep-21 05:00N 53°23' W 002°60'0 0.0
2019-Sep-21 04:30N 53°23' W 002°60'0 0.0
2019-Sep-21 04:00N 53°23' W 002°60'0 0.0
2019-Sep-21 03:30N 53°23' W 002°60'0 0.1
2019-Sep-21 03:00N 53°23' W 002°60'1 1.9
2019-Sep-21 02:30N 53°24' W 003°00'3 6.8
2019-Sep-21 02:00N 53°27' W 003°02'510.3
2019-Sep-21 01:31N 53°31' W 003°07'5 9.8
2019-Sep-21 01:00N 53°31' W 003°15'612.2
2019-Sep-21 00:30N 53°31' W 003°25'713.3
2019-Sep-21 00:00N 53°31' W 003°37'713.4
2019-Sep-20 23:30N 53°30' W 003°48'713.6
2019-Sep-20 23:00N 53°29' W 003°59'713.3
2019-Sep-20 22:28N 53°28' W 004°11'5 9.7
2019-Sep-20 21:58N 53°27' W 004°19'6 5.1
2019-Sep-20 20:47N 53°25' W 004°09'0 0.0
2019-Sep-20 18:18N 53°25' W 004°09'0 0.0
2019-Sep-20 17:54N 53°25' W 004°09'0 0.0
2019-Sep-20 16:30N 53°25' W 004°09'0 0.0
2019-Sep-20 15:54N 53°25' W 004°09'0 0.1
2019-Sep-20 15:30N 53°25' W 004°09'0 0.0
2019-Sep-20 14:45N 53°25' W 004°09'0 0.0
2019-Sep-20 14:21N 53°25' W 004°09'0 0.1
2019-Sep-20 12:09N 53°25' W 004°09'0 0.0
2019-Sep-20 11:54N 53°25' W 004°09'0 0.0
2019-Sep-20 11:12N 53°25' W 004°09'0 0.2
2019-Sep-20 10:54N 53°25' W 004°09'0 0.1
2019-Sep-20 08:36N 53°25' W 004°09'0 0.1
2019-Sep-20 08:30N 53°25' W 004°09'0 0.1
2019-Sep-20 08:00N 53°25' W 004°09'0 0.0
2019-Sep-20 07:27N 53°25' W 004°09'0 0.0
2019-Sep-20 06:57N 53°25' W 004°09'0 0.0
2019-Sep-20 06:30N 53°25' W 004°09'0 0.0
2019-Sep-20 06:00N 53°25' W 004°09'0 0.0
2019-Sep-20 05:27N 53°25' W 004°09'0 0.0
2019-Sep-20 05:00N 53°25' W 004°09'0 0.0
2019-Sep-20 04:27N 53°25' W 004°09'0 0.0
2019-Sep-20 04:00N 53°25' W 004°09'0 0.0
2019-Sep-20 03:30N 53°25' W 004°09'0 0.0
2019-Sep-20 03:00N 53°25' W 004°09'0 0.0
2019-Sep-20 02:30N 53°25' W 004°09'0 0.2
2019-Sep-20 02:00N 53°25' W 004°09'0 0.2
2019-Sep-20 01:21N 53°25' W 004°09'0 0.0
2019-Sep-20 00:54N 53°25' W 004°09'0 0.0
2019-Sep-20 00:18N 53°25' W 004°09'0 0.1
2019-Sep-20 00:00N 53°25' W 004°09'0 0.0
2019-Sep-19 23:27N 53°25' W 004°09'0 0.1
2019-Sep-19 23:00N 53°25' W 004°09'0 0.0
2019-Sep-19 22:30N 53°25' W 004°09'0 0.0
2019-Sep-19 22:00N 53°25' W 004°09'0 0.0
2019-Sep-19 21:24N 53°25' W 004°09'0 0.1
2019-Sep-19 20:51N 53°25' W 004°09'0 0.1
2019-Sep-19 20:30N 53°25' W 004°09'0 0.2
2019-Sep-19 20:00N 53°25' W 004°09'0 0.1
2019-Sep-19 19:30N 53°25' W 004°09'0 0.0
2019-Sep-19 19:00N 53°25' W 004°09'0 0.0
2019-Sep-19 18:27N 53°25' W 004°09'0 0.0
2019-Sep-19 18:00N 53°25' W 004°09'0 0.0
2019-Sep-19 17:30N 53°25' W 004°09'0 0.0
2019-Sep-19 16:54N 53°25' W 004°09'0 0.0
2019-Sep-19 16:27N 53°25' W 004°09'0 0.0
2019-Sep-19 16:00N 53°25' W 004°09'0 0.0
2019-Sep-19 15:30N 53°25' W 004°09'0 0.0
2019-Sep-19 15:00N 53°25' W 004°09'0 0.0
2019-Sep-19 14:30N 53°25' W 004°09'0 0.0
2019-Sep-19 14:00N 53°25' W 004°09'0 0.2
2019-Sep-19 13:30N 53°25' W 004°09'0 0.2
2019-Sep-19 12:54N 53°25' W 004°09'1 2.1
2019-Sep-19 12:30N 53°26' W 004°09'510.0
2019-Sep-19 12:00N 53°30' W 004°13'610.7
2019-Sep-19 11:28N 53°35' W 004°17'510.7
2019-Sep-19 10:58N 53°40' W 004°22'710.8
2019-Sep-19 10:19N 53°44' W 004°32'610.6
2019-Sep-19 09:42N 53°48' W 004°41'410.8
2019-Sep-19 09:17N 53°50' W 004°47'712.3
2019-Sep-19 08:45N 53°54' W 004°56'812.0
2019-Sep-19 08:04N 53°60' W 005°07'110.7
2019-Sep-19 08:00N 54°00' W 005°07'612.1
2019-Sep-19 07:30N 54°06' W 005°07'612.0
2019-Sep-19 07:00N 54°12' W 005°07'510.8
2019-Sep-19 06:30N 54°18' W 005°06'510.4
2019-Sep-19 05:59N 54°23' W 005°06'5 9.6
2019-Sep-19 05:30N 54°28' W 005°06'510.2
2019-Sep-19 05:00N 54°33' W 005°08'510.3
2019-Sep-19 04:29N 54°37' W 005°12'510.2
2019-Sep-19 04:00N 54°42' W 005°16'510.1
2019-Sep-19 03:30N 54°46' W 005°20'5 9.7
2019-Sep-19 03:00N 54°50' W 005°24'5 9.7
2019-Sep-19 02:30N 54°55' W 005°28'7 9.8
2019-Sep-19 01:46N 55°00' W 005°36'2511.7
2019-Sep-18 23:40N 55°19' W 006°04'212.4
2019-Sep-18 23:30N 55°21' W 006°06'1812.0
2019-Sep-18 22:01N 55°30' W 006°33'013.8
2019-Sep-18 22:00N 55°30' W 006°33'714.1
2019-Sep-18 21:31N 55°35' W 006°41'713.8
2019-Sep-18 21:00N 55°41' W 006°49'612.9
2019-Sep-18 20:30N 55°46' W 006°56'15210.9
2019-Sep-18 06:28N 58°18' W 007°19'612.1
2019-Sep-18 06:00N 58°22' W 007°13'611.9
2019-Sep-18 05:30N 58°26' W 007°04'612.0
2019-Sep-18 05:01N 58°30' W 006°55'612.0
2019-Sep-18 04:30N 58°33' W 006°45'612.4
2019-Sep-18 04:00N 58°37' W 006°36'612.6
2019-Sep-18 03:30N 58°40' W 006°26'613.0
2019-Sep-18 03:00N 58°44' W 006°15'612.9
2019-Sep-18 02:30N 58°48' W 006°05'612.9
2019-Sep-18 02:01N 58°51' W 005°55'612.7
2019-Sep-18 01:30N 58°55' W 005°45'612.7
2019-Sep-18 01:01N 58°59' W 005°35'612.5
2019-Sep-18 00:30N 59°02' W 005°25'28410.1
2019-Sep-16 20:20N 58°46' E 003°44'410.7
2019-Sep-16 20:00N 58°44' E 003°50'510.8
2019-Sep-16 19:29N 58°42' E 003°60'611.2
2019-Sep-16 19:00N 58°40' E 004°09'611.4
2019-Sep-16 18:30N 58°37' E 004°19'611.2
2019-Sep-16 18:00N 58°35' E 004°29'511.0
2019-Sep-16 17:30N 58°33' E 004°39'510.9
2019-Sep-16 17:00N 58°31' E 004°48'510.6
2019-Sep-16 16:30N 58°29' E 004°58'5 9.9
2019-Sep-16 16:00N 58°27' E 005°07'510.2
2019-Sep-16 15:30N 58°24' E 005°15'510.1
2019-Sep-16 15:00N 58°21' E 005°22'510.1
2019-Sep-16 14:29N 58°18' E 005°30'510.6
2019-Sep-16 14:00N 58°15' E 005°37'510.7
2019-Sep-16 13:30N 58°11' E 005°45'510.8
2019-Sep-16 13:00N 58°07' E 005°52'510.8
2019-Sep-16 12:30N 58°04' E 005°60'510.8
2019-Sep-16 12:00N 58°00' E 006°08'611.1
2019-Sep-16 11:29N 57°57' E 006°16'510.8
2019-Sep-16 11:00N 57°53' E 006°24'510.6
2019-Sep-16 10:30N 57°50' E 006°32'611.3
2019-Sep-16 10:00N 57°48' E 006°42'611.7
2019-Sep-16 09:28N 57°47' E 006°53'510.9
2019-Sep-16 09:00N 57°47' E 007°03'510.6
2019-Sep-16 08:30N 57°47' E 007°13'510.6
2019-Sep-16 08:00N 57°46' E 007°23'510.8
2019-Sep-16 07:30N 57°46' E 007°33'510.9
2019-Sep-16 07:00N 57°46' E 007°43'511.0
2019-Sep-16 06:30N 57°46' E 007°53'611.2
2019-Sep-16 06:00N 57°47' E 008°03'611.4
2019-Sep-16 05:30N 57°49' E 008°13'611.0
2019-Sep-16 05:00N 57°50' E 008°24'510.9
2019-Sep-16 04:30N 57°52' E 008°33'510.5
2019-Sep-16 04:00N 57°53' E 008°43'510.3
2019-Sep-16 03:30N 57°54' E 008°52'5 9.9
2019-Sep-16 03:00N 57°55' E 009°01'5 9.9
2019-Sep-16 02:30N 57°57' E 009°10'5 9.7
2019-Sep-16 02:00N 57°58' E 009°19'5 9.4
2019-Sep-16 01:30N 57°59' E 009°28'5 8.8
2019-Sep-16 01:00N 57°58' E 009°36'4 8.6
2019-Sep-16 00:30N 57°57' E 009°44'4 8.5
2019-Sep-16 00:00N 57°56' E 009°52'4 9.0
2019-Sep-15 23:30N 57°56' E 010°00'21 8.1
2019-Sep-15 20:53N 57°51' E 010°39'3 6.9
2019-Sep-15 20:30N 57°49' E 010°42'4 7.4
2019-Sep-15 20:00N 57°46' E 010°46'4 7.6
2019-Sep-15 19:30N 57°43' E 010°45'3 6.4
2019-Sep-15 19:00N 57°39' E 010°46'510.6
2019-Sep-15 18:30N 57°36' E 010°54'510.3
2019-Sep-15 18:00N 57°34' E 011°03'5 9.9
2019-Sep-15 17:30N 57°33' E 011°12'5 9.5
2019-Sep-15 17:00N 57°31' E 011°20'4 9.0
2019-Sep-15 16:30N 57°28' E 011°26'5 9.9
2019-Sep-15 16:00N 57°23' E 011°29'510.2
2019-Sep-15 15:30N 57°18' E 011°32'510.5
2019-Sep-15 15:00N 57°13' E 011°35'510.3
2019-Sep-15 14:30N 57°08' E 011°39'510.5
2019-Sep-15 14:00N 57°03' E 011°42'11010.4
2019-Sep-15 03:29N 55°16' E 011°05'510.7
2019-Sep-15 03:00N 55°11' E 011°03'510.6
2019-Sep-15 02:30N 55°06' E 010°59'612.5
2019-Sep-15 02:00N 54°60' E 010°59'612.2
2019-Sep-15 01:30N 54°55' E 010°52'5 9.4
2019-Sep-15 01:00N 54°50' E 010°50'611.5
2019-Sep-15 00:30N 54°45' E 010°48'510.3
2019-Sep-15 00:00N 54°40' E 010°50'611.5
2019-Sep-14 23:30N 54°37' E 010°58'611.4
2019-Sep-14 23:00N 54°36' E 011°08'611.5
2019-Sep-14 22:31N 54°34' E 011°17'611.7
2019-Sep-14 22:00N 54°32' E 011°26'611.7
2019-Sep-14 21:30N 54°29' E 011°35'611.4
2019-Sep-14 21:00N 54°27' E 011°45'611.6
2019-Sep-14 20:28N 54°27' E 011°55'612.1
2019-Sep-14 20:00N 54°27' E 012°05'510.0
2019-Sep-14 19:30N 54°29' E 012°12'611.7
2019-Sep-14 18:58N 54°35' E 012°16'3 7.5
2019-Sep-14 18:30N 54°38' E 012°20'9511.6
2019-Sep-14 10:17N 55°28' E 014°40'412.4
2019-Sep-14 09:59N 55°30' E 014°46'612.4
2019-Sep-14 09:31N 55°33' E 014°55'612.2
2019-Sep-14 09:00N 55°35' E 015°05'612.0
2019-Sep-14 08:30N 55°38' E 015°14'612.1
2019-Sep-14 08:00N 55°39' E 015°25'612.1
2019-Sep-14 07:30N 55°41' E 015°35'612.2
2019-Sep-14 07:01N 55°42' E 015°46'612.1
2019-Sep-14 06:30N 55°44' E 015°56'611.8
2019-Sep-14 06:00N 55°46' E 016°06'611.7
2019-Sep-14 05:30N 55°47' E 016°16'611.6
2019-Sep-14 05:00N 55°49' E 016°26'611.5
2019-Sep-14 04:30N 55°51' E 016°36'611.5
2019-Sep-14 04:00N 55°52' E 016°45'611.4
2019-Sep-14 03:30N 55°54' E 016°55'611.5
2019-Sep-14 03:01N 55°55' E 017°05'27411.4
2019-Sep-13 02:57N 59°29' E 022°26'511.5
2019-Sep-13 02:30N 59°32' E 022°35'1211.7
2019-Sep-13 01:30N 59°35' E 022°57'611.9
2019-Sep-13 01:00N 59°36' E 023°08'611.9
2019-Sep-13 00:30N 59°38' E 023°20'611.8
2019-Sep-13 00:00N 59°40' E 023°31'611.8
2019-Sep-12 23:30N 59°41' E 023°42'611.7
2019-Sep-12 23:00N 59°43' E 023°53'611.5
2019-Sep-12 22:28N 59°44' E 024°05'511.6
2019-Sep-12 22:00N 59°46' E 024°15'612.0
2019-Sep-12 21:30N 59°47' E 024°27'612.0
2019-Sep-12 21:00N 59°49' E 024°39'612.0
2019-Sep-12 20:30N 59°50' E 024°50'612.0
2019-Sep-12 20:00N 59°51' E 025°02'612.2
2019-Sep-12 19:30N 59°53' E 025°14'612.1
2019-Sep-12 19:00N 59°53' E 025°26'612.1
2019-Sep-12 18:30N 59°54' E 025°38'911.9
2019-Sep-12 17:43N 59°56' E 025°56'811.4
2019-Sep-12 16:59N 59°59' E 026°12'511.4
2019-Sep-12 16:30N 59°60' E 026°23'611.7
2019-Sep-12 16:00N 60°01' E 026°34'611.5
2019-Sep-12 15:30N 60°01' E 026°45'612.0
2019-Sep-12 15:00N 59°60' E 026°57'510.9
2019-Sep-12 14:30N 60°01' E 027°08'611.7
2019-Sep-12 14:00N 60°04' E 027°18'611.6
2019-Sep-12 13:30N 60°07' E 027°28'611.5
2019-Sep-12 13:00N 60°10' E 027°37'510.9
2019-Sep-12 12:30N 60°12' E 027°48'611.8
2019-Sep-12 12:00N 60°11' E 027°59'612.2
2019-Sep-12 11:30N 60°09' E 028°11'611.8
2019-Sep-12 11:00N 60°07' E 028°22'612.1
2019-Sep-12 10:30N 60°09' E 028°34'611.5
2019-Sep-12 10:00N 60°12' E 028°44'4 8.8
2019-Sep-12 09:30N 60°16' E 028°47'4 7.8
2019-Sep-12 09:01N 60°19' E 028°43'  
Track history (hours):
 
Tides and Currents Weather Stations Pressure Air Temp Water Temp Dewpoint Dewpoint Depression Visibility Wind Speed Wind Dir Waves Ship Positions

Azamara Quest

Last reported at 2019-Sep-22 00:00 UTC. Time now 2019-Sep-22 00:06 UTC.
Position N 53°23' W 002°60'.

Length 184 m; draft 11.2 m.

Type: Tanker. MMSI: 538005401.

Date/timePositionNaut miles runAvg speedWind from/ knotsBaromVisibWave heightAir tempDewpointWater temp
2019-Sep-22 00:00N 53°23' W 002°60'0 0.0
2019-Sep-21 23:30N 53°23' W 002°60'0 0.0
2019-Sep-21 23:00N 53°23' W 002°60'0 0.0
2019-Sep-21 22:30N 53°23' W 002°60'0 0.0
2019-Sep-21 22:00N 53°23' W 002°60'0 0.0
2019-Sep-21 21:30N 53°23' W 002°60'0 0.0
2019-Sep-21 21:00N 53°23' W 002°60'0 0.0
2019-Sep-21 20:30N 53°23' W 002°60'0 0.0
2019-Sep-21 20:00N 53°23' W 002°60'0 0.0
2019-Sep-21 19:30N 53°23' W 002°60'0 0.0
2019-Sep-21 19:00N 53°23' W 002°60'0 0.0
2019-Sep-21 18:30N 53°23' W 002°60'0 0.0
2019-Sep-21 18:00N 53°23' W 002°60'0 0.0
2019-Sep-21 17:30N 53°23' W 002°60'0 0.0
2019-Sep-21 17:00N 53°23' W 002°60'0 0.0
2019-Sep-21 16:30N 53°23' W 002°60'0 0.0
2019-Sep-21 16:00N 53°23' W 002°60'0 0.0
2019-Sep-21 15:30N 53°23' W 002°60'0 0.0
2019-Sep-21 15:00N 53°23' W 002°60'0 0.0
2019-Sep-21 14:30N 53°23' W 002°60'0 0.0
2019-Sep-21 14:00N 53°23' W 002°60'0 0.0
2019-Sep-21 13:30N 53°23' W 002°60'0 0.0
2019-Sep-21 13:00N 53°23' W 002°60'0 0.0
2019-Sep-21 12:30N 53°23' W 002°60'0 0.0
2019-Sep-21 12:00N 53°23' W 002°60'0 0.0
2019-Sep-21 11:30N 53°23' W 002°60'0 0.0
2019-Sep-21 11:00N 53°23' W 002°60'0 0.0
2019-Sep-21 10:30N 53°23' W 002°60'0 0.0
2019-Sep-21 10:00N 53°23' W 002°60'0 0.0
2019-Sep-21 09:30N 53°23' W 002°60'0 0.0
2019-Sep-21 09:00N 53°23' W 002°60'0 0.0
2019-Sep-21 08:30N 53°23' W 002°60'0 0.0
2019-Sep-21 08:00N 53°23' W 002°60'0 0.0
2019-Sep-21 07:30N 53°23' W 002°60'0 0.0
2019-Sep-21 07:00N 53°23' W 002°60'0 0.0
2019-Sep-21 06:30N 53°23' W 002°60'0 0.0
2019-Sep-21 06:00N 53°23' W 002°60'0 0.0
2019-Sep-21 05:30N 53°23' W 002°60'0 0.0
2019-Sep-21 05:00N 53°23' W 002°60'0 0.0
2019-Sep-21 04:30N 53°23' W 002°60'0 0.0
2019-Sep-21 04:00N 53°23' W 002°60'0 0.0
2019-Sep-21 03:30N 53°23' W 002°60'0 0.1
2019-Sep-21 03:00N 53°23' W 002°60'1 1.9
2019-Sep-21 02:30N 53°24' W 003°00'3 6.8
2019-Sep-21 02:00N 53°27' W 003°02'510.3
2019-Sep-21 01:31N 53°31' W 003°07'5 9.8
2019-Sep-21 01:00N 53°31' W 003°15'612.2
2019-Sep-21 00:30N 53°31' W 003°25'713.3
2019-Sep-21 00:00N 53°31' W 003°37'713.4
2019-Sep-20 23:30N 53°30' W 003°48'713.6
2019-Sep-20 23:00N 53°29' W 003°59'713.3
2019-Sep-20 22:28N 53°28' W 004°11'5 9.7
2019-Sep-20 21:58N 53°27' W 004°19'6 5.1
2019-Sep-20 20:47N 53°25' W 004°09'0 0.0
2019-Sep-20 18:18N 53°25' W 004°09'0 0.0
2019-Sep-20 17:54N 53°25' W 004°09'0 0.0
2019-Sep-20 16:30N 53°25' W 004°09'0 0.0
2019-Sep-20 15:54N 53°25' W 004°09'0 0.1
2019-Sep-20 15:30N 53°25' W 004°09'0 0.0
2019-Sep-20 14:45N 53°25' W 004°09'0 0.0
2019-Sep-20 14:21N 53°25' W 004°09'0 0.1
2019-Sep-20 12:09N 53°25' W 004°09'0 0.0
2019-Sep-20 11:54N 53°25' W 004°09'0 0.0
2019-Sep-20 11:12N 53°25' W 004°09'0 0.2
2019-Sep-20 10:54N 53°25' W 004°09'0 0.1
2019-Sep-20 08:36N 53°25' W 004°09'0 0.1
2019-Sep-20 08:30N 53°25' W 004°09'0 0.1
2019-Sep-20 08:00N 53°25' W 004°09'0 0.0
2019-Sep-20 07:27N 53°25' W 004°09'0 0.0
2019-Sep-20 06:57N 53°25' W 004°09'0 0.0
2019-Sep-20 06:30N 53°25' W 004°09'0 0.0
2019-Sep-20 06:00N 53°25' W 004°09'0 0.0
2019-Sep-20 05:27N 53°25' W 004°09'0 0.0
2019-Sep-20 05:00N 53°25' W 004°09'0 0.0
2019-Sep-20 04:27N 53°25' W 004°09'0 0.0
2019-Sep-20 04:00N 53°25' W 004°09'0 0.0
2019-Sep-20 03:30N 53°25' W 004°09'0 0.0
2019-Sep-20 03:00N 53°25' W 004°09'0 0.0
2019-Sep-20 02:30N 53°25' W 004°09'0 0.2
2019-Sep-20 02:00N 53°25' W 004°09'0 0.2
2019-Sep-20 01:21N 53°25' W 004°09'0 0.0
2019-Sep-20 00:54N 53°25' W 004°09'0 0.0
2019-Sep-20 00:18N 53°25' W 004°09'0 0.1
2019-Sep-20 00:00N 53°25' W 004°09'0 0.0
2019-Sep-19 23:27N 53°25' W 004°09'0 0.1
2019-Sep-19 23:00N 53°25' W 004°09'0 0.0
2019-Sep-19 22:30N 53°25' W 004°09'0 0.0
2019-Sep-19 22:00N 53°25' W 004°09'0 0.0
2019-Sep-19 21:24N 53°25' W 004°09'0 0.1
2019-Sep-19 20:51N 53°25' W 004°09'0 0.1
2019-Sep-19 20:30N 53°25' W 004°09'0 0.2
2019-Sep-19 20:00N 53°25' W 004°09'0 0.1
2019-Sep-19 19:30N 53°25' W 004°09'0 0.0
2019-Sep-19 19:00N 53°25' W 004°09'0 0.0
2019-Sep-19 18:27N 53°25' W 004°09'0 0.0
2019-Sep-19 18:00N 53°25' W 004°09'0 0.0
2019-Sep-19 17:30N 53°25' W 004°09'0 0.0
2019-Sep-19 16:54N 53°25' W 004°09'0 0.0
2019-Sep-19 16:27N 53°25' W 004°09'0 0.0
2019-Sep-19 16:00N 53°25' W 004°09'0 0.0
2019-Sep-19 15:30N 53°25' W 004°09'0 0.0
2019-Sep-19 15:00N 53°25' W 004°09'0 0.0
2019-Sep-19 14:30N 53°25' W 004°09'0 0.0
2019-Sep-19 14:00N 53°25' W 004°09'0 0.2
2019-Sep-19 13:30N 53°25' W 004°09'0 0.2
2019-Sep-19 12:54N 53°25' W 004°09'1 2.1
2019-Sep-19 12:30N 53°26' W 004°09'510.0
2019-Sep-19 12:00N 53°30' W 004°13'610.7
2019-Sep-19 11:28N 53°35' W 004°17'510.7
2019-Sep-19 10:58N 53°40' W 004°22'710.8
2019-Sep-19 10:19N 53°44' W 004°32'610.6
2019-Sep-19 09:42N 53°48' W 004°41'410.8
2019-Sep-19 09:17N 53°50' W 004°47'712.3
2019-Sep-19 08:45N 53°54' W 004°56'812.0
2019-Sep-19 08:04N 53°60' W 005°07'110.7
2019-Sep-19 08:00N 54°00' W 005°07'612.1
2019-Sep-19 07:30N 54°06' W 005°07'612.0
2019-Sep-19 07:00N 54°12' W 005°07'510.8
2019-Sep-19 06:30N 54°18' W 005°06'510.4
2019-Sep-19 05:59N 54°23' W 005°06'5 9.6
2019-Sep-19 05:30N 54°28' W 005°06'510.2
2019-Sep-19 05:00N 54°33' W 005°08'510.3
2019-Sep-19 04:29N 54°37' W 005°12'510.2
2019-Sep-19 04:00N 54°42' W 005°16'510.1
2019-Sep-19 03:30N 54°46' W 005°20'5 9.7
2019-Sep-19 03:00N 54°50' W 005°24'5 9.7
2019-Sep-19 02:30N 54°55' W 005°28'7 9.8
2019-Sep-19 01:46N 55°00' W 005°36'2511.7
2019-Sep-18 23:40N 55°19' W 006°04'212.4
2019-Sep-18 23:30N 55°21' W 006°06'1812.0
2019-Sep-18 22:01N 55°30' W 006°33'013.8
2019-Sep-18 22:00N 55°30' W 006°33'714.1
2019-Sep-18 21:31N 55°35' W 006°41'713.8
2019-Sep-18 21:00N 55°41' W 006°49'612.9
2019-Sep-18 20:30N 55°46' W 006°56'15210.9
2019-Sep-18 06:28N 58°18' W 007°19'612.1
2019-Sep-18 06:00N 58°22' W 007°13'611.9
2019-Sep-18 05:30N 58°26' W 007°04'612.0
2019-Sep-18 05:01N 58°30' W 006°55'612.0
2019-Sep-18 04:30N 58°33' W 006°45'612.4
2019-Sep-18 04:00N 58°37' W 006°36'612.6
2019-Sep-18 03:30N 58°40' W 006°26'613.0
2019-Sep-18 03:00N 58°44' W 006°15'612.9
2019-Sep-18 02:30N 58°48' W 006°05'612.9
2019-Sep-18 02:01N 58°51' W 005°55'612.7
2019-Sep-18 01:30N 58°55' W 005°45'612.7
2019-Sep-18 01:01N 58°59' W 005°35'612.5
2019-Sep-18 00:30N 59°02' W 005°25'28410.1
2019-Sep-16 20:20N 58°46' E 003°44'410.7
2019-Sep-16 20:00N 58°44' E 003°50'510.8
2019-Sep-16 19:29N 58°42' E 003°60'611.2
2019-Sep-16 19:00N 58°40' E 004°09'611.4
2019-Sep-16 18:30N 58°37' E 004°19'611.2
2019-Sep-16 18:00N 58°35' E 004°29'511.0
2019-Sep-16 17:30N 58°33' E 004°39'510.9
2019-Sep-16 17:00N 58°31' E 004°48'510.6
2019-Sep-16 16:30N 58°29' E 004°58'5 9.9
2019-Sep-16 16:00N 58°27' E 005°07'510.2
2019-Sep-16 15:30N 58°24' E 005°15'510.1
2019-Sep-16 15:00N 58°21' E 005°22'510.1
2019-Sep-16 14:29N 58°18' E 005°30'510.6
2019-Sep-16 14:00N 58°15' E 005°37'510.7
2019-Sep-16 13:30N 58°11' E 005°45'510.8
2019-Sep-16 13:00N 58°07' E 005°52'510.8
2019-Sep-16 12:30N 58°04' E 005°60'510.8
2019-Sep-16 12:00N 58°00' E 006°08'611.1
2019-Sep-16 11:29N 57°57' E 006°16'510.8
2019-Sep-16 11:00N 57°53' E 006°24'510.6
2019-Sep-16 10:30N 57°50' E 006°32'611.3
2019-Sep-16 10:00N 57°48' E 006°42'611.7
2019-Sep-16 09:28N 57°47' E 006°53'510.9
2019-Sep-16 09:00N 57°47' E 007°03'510.6
2019-Sep-16 08:30N 57°47' E 007°13'510.6
2019-Sep-16 08:00N 57°46' E 007°23'510.8
2019-Sep-16 07:30N 57°46' E 007°33'510.9
2019-Sep-16 07:00N 57°46' E 007°43'511.0
2019-Sep-16 06:30N 57°46' E 007°53'611.2
2019-Sep-16 06:00N 57°47' E 008°03'611.4
2019-Sep-16 05:30N 57°49' E 008°13'611.0
2019-Sep-16 05:00N 57°50' E 008°24'510.9
2019-Sep-16 04:30N 57°52' E 008°33'510.5
2019-Sep-16 04:00N 57°53' E 008°43'510.3
2019-Sep-16 03:30N 57°54' E 008°52'5 9.9
2019-Sep-16 03:00N 57°55' E 009°01'5 9.9
2019-Sep-16 02:30N 57°57' E 009°10'5 9.7
2019-Sep-16 02:00N 57°58' E 009°19'5 9.4
2019-Sep-16 01:30N 57°59' E 009°28'5 8.8
2019-Sep-16 01:00N 57°58' E 009°36'4 8.6
2019-Sep-16 00:30N 57°57' E 009°44'4 8.5
2019-Sep-16 00:00N 57°56' E 009°52'4 9.0
2019-Sep-15 23:30N 57°56' E 010°00'21 8.1
2019-Sep-15 20:53N 57°51' E 010°39'3 6.9
2019-Sep-15 20:30N 57°49' E 010°42'4 7.4
2019-Sep-15 20:00N 57°46' E 010°46'4 7.6
2019-Sep-15 19:30N 57°43' E 010°45'3 6.4
2019-Sep-15 19:00N 57°39' E 010°46'510.6
2019-Sep-15 18:30N 57°36' E 010°54'510.3
2019-Sep-15 18:00N 57°34' E 011°03'5 9.9
2019-Sep-15 17:30N 57°33' E 011°12'5 9.5
2019-Sep-15 17:00N 57°31' E 011°20'4 9.0
2019-Sep-15 16:30N 57°28' E 011°26'5 9.9
2019-Sep-15 16:00N 57°23' E 011°29'510.2
2019-Sep-15 15:30N 57°18' E 011°32'510.5
2019-Sep-15 15:00N 57°13' E 011°35'510.3
2019-Sep-15 14:30N 57°08' E 011°39'510.5
2019-Sep-15 14:00N 57°03' E 011°42'11010.4
2019-Sep-15 03:29N 55°16' E 011°05'510.7
2019-Sep-15 03:00N 55°11' E 011°03'510.6
2019-Sep-15 02:30N 55°06' E 010°59'612.5
2019-Sep-15 02:00N 54°60' E 010°59'612.2
2019-Sep-15 01:30N 54°55' E 010°52'5 9.4
2019-Sep-15 01:00N 54°50' E 010°50'611.5
2019-Sep-15 00:30N 54°45' E 010°48'510.3
2019-Sep-15 00:00N 54°40' E 010°50'611.5
2019-Sep-14 23:30N 54°37' E 010°58'611.4
2019-Sep-14 23:00N 54°36' E 011°08'611.5
2019-Sep-14 22:31N 54°34' E 011°17'611.7
2019-Sep-14 22:00N 54°32' E 011°26'611.7
2019-Sep-14 21:30N 54°29' E 011°35'611.4
2019-Sep-14 21:00N 54°27' E 011°45'611.6
2019-Sep-14 20:28N 54°27' E 011°55'612.1
2019-Sep-14 20:00N 54°27' E 012°05'510.0
2019-Sep-14 19:30N 54°29' E 012°12'611.7
2019-Sep-14 18:58N 54°35' E 012°16'3 7.5
2019-Sep-14 18:30N 54°38' E 012°20'9511.6
2019-Sep-14 10:17N 55°28' E 014°40'412.4
2019-Sep-14 09:59N 55°30' E 014°46'612.4
2019-Sep-14 09:31N 55°33' E 014°55'612.2
2019-Sep-14 09:00N 55°35' E 015°05'612.0
2019-Sep-14 08:30N 55°38' E 015°14'612.1
2019-Sep-14 08:00N 55°39' E 015°25'612.1
2019-Sep-14 07:30N 55°41' E 015°35'612.2
2019-Sep-14 07:01N 55°42' E 015°46'612.1
2019-Sep-14 06:30N 55°44' E 015°56'611.8
2019-Sep-14 06:00N 55°46' E 016°06'611.7
2019-Sep-14 05:30N 55°47' E 016°16'611.6
2019-Sep-14 05:00N 55°49' E 016°26'611.5
2019-Sep-14 04:30N 55°51' E 016°36'611.5
2019-Sep-14 04:00N 55°52' E 016°45'611.4
2019-Sep-14 03:30N 55°54' E 016°55'611.5
2019-Sep-14 03:01N 55°55' E 017°05'27411.4
2019-Sep-13 02:57N 59°29' E 022°26'511.5
2019-Sep-13 02:30N 59°32' E 022°35'1211.7
2019-Sep-13 01:30N 59°35' E 022°57'611.9
2019-Sep-13 01:00N 59°36' E 023°08'611.9
2019-Sep-13 00:30N 59°38' E 023°20'611.8
2019-Sep-13 00:00N 59°40' E 023°31'611.8
2019-Sep-12 23:30N 59°41' E 023°42'611.7
2019-Sep-12 23:00N 59°43' E 023°53'611.5
2019-Sep-12 22:28N 59°44' E 024°05'511.6
2019-Sep-12 22:00N 59°46' E 024°15'612.0
2019-Sep-12 21:30N 59°47' E 024°27'612.0
2019-Sep-12 21:00N 59°49' E 024°39'612.0
2019-Sep-12 20:30N 59°50' E 024°50'612.0
2019-Sep-12 20:00N 59°51' E 025°02'612.2
2019-Sep-12 19:30N 59°53' E 025°14'612.1
2019-Sep-12 19:00N 59°53' E 025°26'612.1
2019-Sep-12 18:30N 59°54' E 025°38'911.9
2019-Sep-12 17:43N 59°56' E 025°56'811.4
2019-Sep-12 16:59N 59°59' E 026°12'511.4
2019-Sep-12 16:30N 59°60' E 026°23'611.7
2019-Sep-12 16:00N 60°01' E 026°34'611.5
2019-Sep-12 15:30N 60°01' E 026°45'612.0
2019-Sep-12 15:00N 59°60' E 026°57'510.9
2019-Sep-12 14:30N 60°01' E 027°08'611.7
2019-Sep-12 14:00N 60°04' E 027°18'611.6
2019-Sep-12 13:30N 60°07' E 027°28'611.5
2019-Sep-12 13:00N 60°10' E 027°37'510.9
2019-Sep-12 12:30N 60°12' E 027°48'611.8
2019-Sep-12 12:00N 60°11' E 027°59'612.2
2019-Sep-12 11:30N 60°09' E 028°11'611.8
2019-Sep-12 11:00N 60°07' E 028°22'612.1
2019-Sep-12 10:30N 60°09' E 028°34'611.5
2019-Sep-12 10:00N 60°12' E 028°44'4 8.8
2019-Sep-12 09:30N 60°16' E 028°47'4 7.8
2019-Sep-12 09:01N 60°19' E 028°43'  

Dump ship's entire track history